Terminal Aerodrome Forecast
Issued by NWS Blacksburg, VA

Home | Current Version | Previous Version | Text Only | Print | Product List | Glossary On
Versions: 1 2 3 4 5 6 7 8 9 10 11 12 13 14 15 16 17 18 19 20 21 22 23 24 25 26 27 28 29 30 31 32 33 34 35
000
FTUS41 KRNK 281744
TAFROA
TAF
KROA 281744Z 2818/2918 21006KT P6SM FEW040 SCT070
     FM282000 20006KT P6SM VCTS BKN050CB
     FM282200 VRB04KT 6SM -TSRA OVC050CB
      TEMPO 2822/2901 VRB15G30KT 2SM TSRA BKN025CB
     FM290400 32004KT 6SM BR VCSH OVC020
     FM291000 28007KT P6SM OVC025
     FM291300 28009KT P6SM SCT020 BKN040=

USA.gov is the U.S. government's official web portal to all federal, state and local government web resources and services.